Terminal Aerodrome Forecast
Issued by NWS Chicago, IL

Home | Current Version | Previous Version | Text Only | Print | Product List | Glossary On
Versions: 1 2 3 4 5 6 7 8 9 10 11 12 13 14 15 16 17 18 19 20 21 22 23 24 25
999
FTUS43 KLOT 282334
TAFRFD
TAF
KRFD 282334Z 2900/2924 11007KT P6SM SCT040 BKN250
     FM290400 09003KT 2SM BR FEW005 SCT250
      TEMPO 2911/2913 1/2SM FG SCT005
     FM291400 11007KT P6SM SCT030 SCT250
     FM292000 14007KT P6SM BKN030=

USA.gov is the U.S. government's official web portal to all federal, state and local government web resources and services.